Time;durP1;ratioP1;P1;durP2;ratioP2;P2;SDS_P1;SDS_P2;PMS_P1;PMS_P2;Temp;Humidity;BMP_temperature;BMP_pressure;BME280_temperature;BME280_humidity;BME280_pressure;Samples;Min_cycle;Max_cycle;Signal;HPM_P1;HPM_P2
2022/11/27 00:01:59;;;;;;;;;15.75;10.00;;;;;;;;5121722;27;45373;-61
2022/11/27 00:04:24;;;;;;;;;10.25;10.00;;;;;;;;5121761;27;45409;-61
2022/11/27 00:06:49;;;;;;;;;19.33;16.33;;;;;;;;5121141;27;46538;-61
2022/11/27 00:09:15;;;;;;;;;8.75;6.50;;;;;;;;5121387;27;45334;-61
2022/11/27 00:11:41;;;;;;;;;13.50;10.00;;;;;;;;5121500;27;45334;-61
2022/11/27 00:14:07;;;;;;;;;13.67;10.00;;;;;;;;5121740;27;45408;-61
2022/11/27 00:16:32;;;;;;;;;7.50;6.75;;;;;;;;5121501;27;46376;-61
2022/11/27 00:18:57;;;;;;;;;8.25;7.50;;;;;;;;5121303;27;45370;-61
2022/11/27 00:21:25;;;;;;;;;11.25;9.75;;;;;;;;5121157;27;45336;-61
2022/11/27 00:23:51;;;;;;;;;10.25;9.75;;;;;;;;5121430;27;45623;-61
2022/11/27 00:26:16;;;;;;;;;7.25;7.25;;;;;;;;5121205;27;46500;-60
2022/11/27 00:28:41;;;;;;;;;11.75;10.25;;;;;;;;5121254;27;45454;-61
2022/11/27 00:31:11;;;;;;;;;13.75;9.25;;;;;;;;5120989;27;45391;-60
2022/11/27 00:33:36;;;;;;;;;11.50;9.25;;;;;;;;5121199;27;45540;-61
2022/11/27 00:36:02;;;;;;;;;12.50;10.25;;;;;;;;5120781;27;46129;-61
2022/11/27 00:38:27;;;;;;;;;11.75;9.75;;;;;;;;5120956;27;45367;-61
2022/11/27 00:40:53;;;;;;;;;9.25;9.00;;;;;;;;5121189;27;45242;-61
2022/11/27 00:43:18;;;;;;;;;10.25;7.75;;;;;;;;5121328;27;45224;-61
2022/11/27 00:45:47;;;;;;;;;13.25;9.00;;;;;;;;5120806;27;45331;-61
2022/11/27 00:48:12;;;;;;;;;12.25;9.50;;;;;;;;5120819;27;45428;-61
2022/11/27 00:50:37;;;;;;;;;10.75;9.00;;;;;;;;5121028;27;45472;-60
2022/11/27 00:53:03;;;;;;;;;10.75;10.75;;;;;;;;5120930;27;45752;-60
2022/11/27 00:55:28;;;;;;;;;13.25;9.50;;;;;;;;5120776;27;45417;-60
2022/11/27 00:57:53;;;;;;;;;10.25;9.50;;;;;;;;5120503;27;45737;-60
2022/11/27 01:00:18;;;;;;;;;10.25;10.00;;;;;;;;5120843;27;45339;-60
2022/11/27 01:02:44;;;;;;;;;10.25;4.00;;;;;;;;5121030;27;45374;-60
2022/11/27 01:05:09;;;;;;;;;11.75;8.00;;;;;;;;5120618;27;46662;-60
2022/11/27 01:07:34;;;;;;;;;9.75;8.75;;;;;;;;5120441;27;45824;-60
2022/11/27 01:09:59;;;;;;;;;9.75;8.25;;;;;;;;5120670;27;45473;-60
2022/11/27 01:12:25;;;;;;;;;13.75;8.00;;;;;;;;5119801;27;45354;-60
2022/11/27 01:14:50;;;;;;;;;9.75;8.50;;;;;;;;5120508;27;45420;-60
2022/11/27 01:17:15;;;;;;;;;12.75;10.00;;;;;;;;5120284;27;45429;-60
2022/11/27 01:19:40;;;;;;;;;13.25;7.25;;;;;;;;5120372;27;45414;-60
2022/11/27 01:22:05;;;;;;;;;7.50;7.50;;;;;;;;5120453;27;45372;-60
2022/11/27 01:24:31;;;;;;;;;12.00;7.50;;;;;;;;5120276;27;45532;-60
2022/11/27 01:26:56;;;;;;;;;9.50;6.75;;;;;;;;5120455;27;45378;-60
2022/11/27 01:29:21;;;;;;;;;5.00;5.00;;;;;;;;5120324;27;45227;-60
2022/11/27 01:31:46;;;;;;;;;7.50;7.50;;;;;;;;5120552;27;45341;-60
2022/11/27 01:34:14;;;;;;;;;7.25;6.00;;;;;;;;5120284;27;45359;-60
2022/11/27 01:36:39;;;;;;;;;11.00;9.75;;;;;;;;5120120;27;45346;-60
2022/11/27 01:39:05;;;;;;;;;9.00;9.00;;;;;;;;5120176;27;45379;-60
2022/11/27 01:41:32;;;;;;;;;10.25;7.75;;;;;;;;5120416;27;45325;-60
2022/11/27 01:44:02;;;;;;;;;1.00;1.00;;;;;;;;5120180;27;45801;-60
2022/11/27 01:46:30;;;;;;;;;10.75;5.25;;;;;;;;5119936;27;45399;-60
2022/11/27 01:49:02;;;;;;;;;8.25;5.50;;;;;;;;5120117;27;45461;-60
2022/11/27 01:51:28;;;;;;;;;7.25;6.75;;;;;;;;5120120;27;45319;-60
2022/11/27 01:53:53;;;;;;;;;6.00;6.00;;;;;;;;5119646;27;45973;-61
2022/11/27 01:56:19;;;;;;;;;8.75;8.00;;;;;;;;5119685;27;45390;-60
2022/11/27 01:58:45;;;;;;;;;12.75;6.00;;;;;;;;5120107;27;45462;-60
2022/11/27 02:01:10;;;;;;;;;8.50;6.00;;;;;;;;5119233;27;45311;-60
2022/11/27 02:03:35;;;;;;;;;5.25;5.25;;;;;;;;5119564;27;45294;-60
2022/11/27 02:06:01;;;;;;;;;10.75;6.00;;;;;;;;5119585;27;45464;-60
2022/11/27 02:08:26;;;;;;;;;8.00;5.75;;;;;;;;5119543;27;45508;-60
2022/11/27 02:11:11;;;;;;;;;6.00;6.00;;;;;;;;5119938;27;45414;-60
2022/11/27 02:13:37;;;;;;;;;6.00;6.00;;;;;;;;5119135;27;45737;-60
2022/11/27 02:16:08;;;;;;;;;4.25;4.25;;;;;;;;5119282;27;45506;-60
2022/11/27 02:18:39;;;;;;;;;8.00;5.50;;;;;;;;5119478;27;46514;-60
2022/11/27 02:21:04;;;;;;;;;10.50;7.50;;;;;;;;5119792;27;45415;-60
2022/11/27 02:23:53;;;;;;;;;9.00;6.75;;;;;;;;5118822;27;46901;-60
2022/11/27 02:26:24;;;;;;;;;7.00;6.25;;;;;;;;5076019;28;45457;-60
2022/11/27 02:28:50;;;;;;;;;13.25;8.00;;;;;;;;5075880;28;45805;-61
2022/11/27 02:31:34;;;;;;;;;6.75;6.75;;;;;;;;5076083;28;45587;-61
2022/11/27 02:34:04;;;;;;;;;5.25;5.00;;;;;;;;5075842;28;46524;-60
2022/11/27 02:36:32;;;;;;;;;5.75;4.25;;;;;;;;5075837;28;45534;-60
2022/11/27 02:39:03;;;;;;;;;9.00;6.75;;;;;;;;5076097;28;45554;-60
2022/11/27 02:41:32;;;;;;;;;8.00;8.00;;;;;;;;5076144;28;45370;-60
2022/11/27 02:43:59;;;;;;;;;6.00;6.00;;;;;;;;5075787;28;45677;-61
2022/11/27 02:46:25;;;;;;;;;13.25;6.00;;;;;;;;5075896;28;45379;-60
2022/11/27 02:48:52;;;;;;;;;6.75;5.25;;;;;;;;5075892;28;45400;-60
2022/11/27 02:51:20;;;;;;;;;9.25;7.25;;;;;;;;5076039;28;45458;-60
2022/11/27 02:53:50;;;;;;;;;6.75;5.25;;;;;;;;5075421;28;46840;-60
2022/11/27 02:56:18;;;;;;;;;11.25;7.50;;;;;;;;5075761;28;45474;-60
2022/11/27 02:58:44;;;;;;;;;8.75;4.25;;;;;;;;5075820;28;45571;-60
2022/11/27 03:01:11;;;;;;;;;5.50;5.25;;;;;;;;5075821;28;45524;-60
2022/11/27 03:03:40;;;;;;;;;5.00;5.00;;;;;;;;5102121;27;45876;-60
2022/11/27 03:06:08;;;;;;;;;2.25;2.25;;;;;;;;5118776;27;45419;-60
2022/11/27 03:08:40;;;;;;;;;7.50;5.50;;;;;;;;5118619;27;45421;-60
2022/11/27 03:11:12;;;;;;;;;5.25;5.25;;;;;;;;5118858;27;45429;-60
2022/11/27 03:13:42;;;;;;;;;5.00;5.00;;;;;;;;5118713;27;45428;-60
2022/11/27 03:16:14;;;;;;;;;5.00;3.25;;;;;;;;5118547;27;45430;-61
2022/11/27 03:18:48;;;;;;;;;7.75;4.25;;;;;;;;5118527;27;45350;-61
2022/11/27 03:21:13;;;;;;;;;3.00;3.00;;;;;;;;5118682;27;45368;-60
2022/11/27 03:23:38;;;;;;;;;5.25;5.00;;;;;;;;5118381;27;45582;-60
2022/11/27 03:26:04;;;;;;;;;6.00;5.00;;;;;;;;5118478;27;45505;-60
2022/11/27 03:28:29;;;;;;;;;6.50;5.00;;;;;;;;5118802;27;45368;-60
2022/11/27 03:30:55;;;;;;;;;9.00;5.25;;;;;;;;5118683;27;45451;-60
2022/11/27 03:33:20;;;;;;;;;6.00;4.25;;;;;;;;5118585;27;46523;-60
2022/11/27 03:35:45;;;;;;;;;3.50;3.50;;;;;;;;5117536;27;45353;-60
2022/11/27 03:38:10;;;;;;;;;3.00;2.00;;;;;;;;5118427;27;45354;-60
2022/11/27 03:40:44;;;;;;;;;7.00;5.00;;;;;;;;5118519;27;45429;-60
2022/11/27 03:43:17;;;;;;;;;6.00;4.50;;;;;;;;5118058;27;46529;-60
2022/11/27 03:45:50;;;;;;;;;4.00;4.00;;;;;;;;5118300;27;45472;-60
2022/11/27 03:48:22;;;;;;;;;6.75;5.25;;;;;;;;5118372;27;45343;-60
2022/11/27 03:51:07;;;;;;;;;4.75;3.50;;;;;;;;5118460;27;45472;-60
2022/11/27 03:53:41;;;;;;;;;6.50;5.75;;;;;;;;5118026;27;46380;-60
2022/11/27 03:56:12;;;;;;;;;6.00;4.00;;;;;;;;5117957;27;45418;-60
2022/11/27 03:58:41;;;;;;;;;2.00;2.00;;;;;;;;5118203;27;45721;-60
2022/11/27 04:01:09;;;;;;;;;5.00;5.00;;;;;;;;5118349;27;45436;-60
2022/11/27 04:03:35;;;;;;;;;7.25;4.25;;;;;;;;5117649;27;45565;-60
2022/11/27 04:06:00;;;;;;;;;9.75;4.50;;;;;;;;5118042;27;45439;-60
2022/11/27 04:08:26;;;;;;;;;6.00;5.00;;;;;;;;5118095;27;45350;-60
2022/11/27 04:10:51;;;;;;;;;9.00;4.50;;;;;;;;5117947;27;45479;-61
2022/11/27 04:13:16;;;;;;;;;5.75;4.00;;;;;;;;5117890;27;45382;-60
2022/11/27 04:15:41;;;;;;;;;6.00;4.75;;;;;;;;5117887;27;45403;-60
2022/11/27 04:18:06;;;;;;;;;5.00;4.25;;;;;;;;5117911;27;45347;-61
2022/11/27 04:20:32;;;;;;;;;6.50;4.00;;;;;;;;5118101;27;45433;-60
2022/11/27 04:22:57;;;;;;;;;4.00;4.00;;;;;;;;5117547;27;46732;-60
2022/11/27 04:25:22;;;;;;;;;5.25;3.00;;;;;;;;5117509;27;45444;-60
2022/11/27 04:27:48;;;;;;;;;10.25;7.75;;;;;;;;5117826;27;45452;-60
2022/11/27 04:30:13;;;;;;;;;7.50;7.50;;;;;;;;5117998;27;45420;-60
2022/11/27 04:32:39;;;;;;;;;12.75;9.00;;;;;;;;5117505;27;46607;-60
2022/11/27 04:35:04;;;;;;;;;8.00;5.25;;;;;;;;5117687;27;45321;-60
2022/11/27 04:37:29;;;;;;;;;6.75;4.50;;;;;;;;5117838;27;45545;-60
2022/11/27 04:39:54;;;;;;;;;10.75;9.00;;;;;;;;5117617;27;45236;-60
2022/11/27 04:42:19;;;;;;;;;6.75;5.00;;;;;;;;5117606;27;45384;-60
2022/11/27 04:44:45;;;;;;;;;9.00;8.00;;;;;;;;5117429;27;45465;-60
2022/11/27 04:47:10;;;;;;;;;11.75;5.75;;;;;;;;5120100;27;45351;-60
2022/11/27 04:49:35;;;;;;;;;5.00;5.00;;;;;;;;5121025;27;45471;-60
2022/11/27 04:52:00;;;;;;;;;12.33;8.00;;;;;;;;5120818;27;45421;-60
2022/11/27 04:54:26;;;;;;;;;10.50;6.00;;;;;;;;5120952;27;45400;-60
2022/11/27 04:56:51;;;;;;;;;7.00;5.25;;;;;;;;5120764;27;45463;-60
2022/11/27 04:59:16;;;;;;;;;9.50;5.50;;;;;;;;5121119;27;45248;-60
2022/11/27 05:01:42;;;;;;;;;5.50;5.50;;;;;;;;5120780;27;45538;-60
2022/11/27 05:04:07;;;;;;;;;9.00;6.00;;;;;;;;5120525;27;45639;-60
2022/11/27 05:06:32;;;;;;;;;6.75;5.75;;;;;;;;5121030;27;45356;-59
2022/11/27 05:09:00;;;;;;;;;5.25;5.25;;;;;;;;5121091;27;45340;-59
2022/11/27 05:11:26;;;;;;;;;9.00;5.00;;;;;;;;5120265;27;46337;-59
2022/11/27 05:14:13;;;;;;;;;4.75;4.75;;;;;;;;5120581;27;45475;-59
2022/11/27 05:16:59;;;;;;;;;6.00;6.00;;;;;;;;5120638;27;45336;-60
2022/11/27 05:19:25;;;;;;;;;5.75;4.75;;;;;;;;5120038;27;45825;-60
2022/11/27 05:21:51;;;;;;;;;4.00;4.00;;;;;;;;5120342;27;45819;-60
2022/11/27 05:24:18;;;;;;;;;9.75;6.50;;;;;;;;5120483;27;45455;-60
2022/11/27 05:26:44;;;;;;;;;9.75;5.50;;;;;;;;5120293;27;45923;-60
2022/11/27 05:29:09;;;;;;;;;4.25;4.00;;;;;;;;5120465;27;45465;-60
2022/11/27 05:31:34;;;;;;;;;6.00;4.00;;;;;;;;5120274;27;46617;-60
2022/11/27 05:34:00;;;;;;;;;6.50;6.25;;;;;;;;5120186;27;45334;-60
2022/11/27 05:36:25;;;;;;;;;4.75;4.75;;;;;;;;5120450;27;45240;-59
2022/11/27 05:38:51;;;;;;;;;7.75;5.25;;;;;;;;5120484;27;45380;-60
2022/11/27 05:41:16;;;;;;;;;8.00;8.00;;;;;;;;5120045;27;46245;-60
2022/11/27 05:43:41;;;;;;;;;8.50;5.00;;;;;;;;5120041;27;45512;-59
2022/11/27 05:46:08;;;;;;;;;6.00;6.00;;;;;;;;5120273;27;45297;-60
2022/11/27 05:48:34;;;;;;;;;5.00;4.00;;;;;;;;5120484;27;45452;-60
2022/11/27 05:50:59;;;;;;;;;6.00;4.00;;;;;;;;5119712;27;46243;-59
2022/11/27 05:53:24;;;;;;;;;5.00;5.00;;;;;;;;5119930;27;45428;-60
2022/11/27 05:55:50;;;;;;;;;8.25;5.50;;;;;;;;5119911;27;45781;-60
2022/11/27 05:58:15;;;;;;;;;5.25;5.25;;;;;;;;5119659;27;45421;-59
2022/11/27 06:00:40;;;;;;;;;6.00;4.50;;;;;;;;5119656;27;46548;-60
2022/11/27 06:03:05;;;;;;;;;13.00;5.50;;;;;;;;5119578;27;45329;-60
2022/11/27 06:05:31;;;;;;;;;4.50;4.50;;;;;;;;5119982;27;45431;-59
2022/11/27 06:07:56;;;;;;;;;4.75;4.50;;;;;;;;5119931;27;45354;-59
2022/11/27 06:10:21;;;;;;;;;12.50;6.25;;;;;;;;5119425;27;47167;-60
2022/11/27 06:12:46;;;;;;;;;8.25;6.50;;;;;;;;5119464;27;45455;-60
2022/11/27 06:15:12;;;;;;;;;10.25;5.50;;;;;;;;5119617;27;45396;-60
2022/11/27 06:17:37;;;;;;;;;10.25;6.00;;;;;;;;5119864;27;45386;-60
2022/11/27 06:20:02;;;;;;;;;9.25;5.00;;;;;;;;5119192;27;46380;-59
2022/11/27 06:22:27;;;;;;;;;7.00;5.75;;;;;;;;5119492;27;45290;-60
2022/11/27 06:24:53;;;;;;;;;9.75;6.50;;;;;;;;5119808;27;46391;-59
2022/11/27 06:27:18;;;;;;;;;6.25;4.75;;;;;;;;5119433;27;45302;-60
2022/11/27 06:29:43;;;;;;;;;8.50;8.00;;;;;;;;5119107;27;45562;-60
2022/11/27 06:32:08;;;;;;;;;9.00;6.25;;;;;;;;5119256;27;45474;-60
2022/11/27 06:34:33;;;;;;;;;6.50;3.25;;;;;;;;5119427;27;45382;-60
2022/11/27 06:36:59;;;;;;;;;4.75;3.50;;;;;;;;5119627;27;45428;-60
2022/11/27 06:39:24;;;;;;;;;7.25;5.75;;;;;;;;5118901;27;46284;-60
2022/11/27 06:41:49;;;;;;;;;7.50;5.00;;;;;;;;5119248;27;45410;-60
2022/11/27 06:44:14;;;;;;;;;10.50;5.75;;;;;;;;5119356;27;45168;-60
2022/11/27 06:46:39;;;;;;;;;3.75;3.75;;;;;;;;5119368;27;45230;-60
2022/11/27 06:49:05;;;;;;;;;8.75;5.25;;;;;;;;5118987;27;46383;-60
2022/11/27 06:51:31;;;;;;;;;6.75;4.00;;;;;;;;5118751;27;45405;-60
2022/11/27 06:53:58;;;;;;;;;4.25;4.25;;;;;;;;5119145;27;45358;-60
2022/11/27 06:56:24;;;;;;;;;4.75;4.75;;;;;;;;5119010;27;45466;-60
2022/11/27 06:58:50;;;;;;;;;8.75;6.25;;;;;;;;5118600;27;46592;-59
2022/11/27 07:01:16;;;;;;;;;10.50;6.25;;;;;;;;5118771;27;45311;-60
2022/11/27 07:03:41;;;;;;;;;11.25;5.25;;;;;;;;5118932;27;45334;-60
2022/11/27 07:06:08;;;;;;;;;11.00;6.25;;;;;;;;5119279;27;45556;-60
2022/11/27 07:08:33;;;;;;;;;8.00;5.00;;;;;;;;5118755;27;45610;-60
2022/11/27 07:11:06;;;;;;;;;7.75;5.75;;;;;;;;5117394;27;45310;-60
2022/11/27 07:13:32;;;;;;;;;5.50;5.50;;;;;;;;5118670;27;45388;-60
2022/11/27 07:16:04;;;;;;;;;6.00;6.00;;;;;;;;5118718;27;45428;-60
2022/11/27 07:18:33;;;;;;;;;8.25;5.00;;;;;;;;5118426;27;46633;-60
2022/11/27 07:20:58;;;;;;;;;7.25;5.00;;;;;;;;5118704;27;45540;-60
2022/11/27 07:23:23;;;;;;;;;11.25;6.25;;;;;;;;5118487;27;45470;-60
2022/11/27 07:25:48;;;;;;;;;7.50;7.25;;;;;;;;5118893;27;45346;-60
2022/11/27 07:28:13;;;;;;;;;6.50;6.00;;;;;;;;5118204;27;46205;-60
2022/11/27 07:30:39;;;;;;;;;4.50;4.50;;;;;;;;5118390;27;45243;-60
2022/11/27 07:33:04;;;;;;;;;5.75;5.75;;;;;;;;5118683;27;45799;-60
2022/11/27 07:35:29;;;;;;;;;10.25;8.75;;;;;;;;5118625;27;45290;-60
2022/11/27 07:37:54;;;;;;;;;9.00;7.75;;;;;;;;5118337;27;45465;-60
2022/11/27 07:40:19;;;;;;;;;9.25;6.75;;;;;;;;5118262;27;45500;-60
2022/11/27 07:42:45;;;;;;;;;10.50;8.50;;;;;;;;5118390;27;45345;-60
2022/11/27 07:45:10;;;;;;;;;6.75;5.00;;;;;;;;5118667;27;45398;-60
2022/11/27 07:47:35;;;;;;;;;11.00;8.25;;;;;;;;5118009;27;46879;-60
2022/11/27 07:50:00;;;;;;;;;8.00;8.00;;;;;;;;5118178;27;45381;-60
2022/11/27 07:52:26;;;;;;;;;11.50;8.75;;;;;;;;5118340;27;45403;-60
2022/11/27 07:54:51;;;;;;;;;9.00;7.50;;;;;;;;5118390;27;45354;-60
2022/11/27 07:57:16;;;;;;;;;13.25;10.00;;;;;;;;5117963;27;45764;-60
2022/11/27 07:59:41;;;;;;;;;12.50;8.75;;;;;;;;5118041;27;45512;-60
2022/11/27 08:02:10;;;;;;;;;13.25;7.50;;;;;;;;5118100;27;45389;-60
2022/11/27 08:04:35;;;;;;;;;9.00;6.75;;;;;;;;5118222;27;45398;-60
2022/11/27 08:07:00;;;;;;;;;11.50;9.25;;;;;;;;5117794;27;46171;-60
2022/11/27 08:09:27;;;;;;;;;6.25;6.25;;;;;;;;5118023;27;45381;-60
2022/11/27 08:11:53;;;;;;;;;9.25;8.50;;;;;;;;5117903;27;45348;-60
2022/11/27 08:14:18;;;;;;;;;6.00;6.00;;;;;;;;5117728;27;45563;-60
2022/11/27 08:16:43;;;;;;;;;6.50;6.50;;;;;;;;5116980;27;46553;-60
2022/11/27 08:19:09;;;;;;;;;10.50;8.00;;;;;;;;5117063;27;45393;-61
2022/11/27 08:21:34;;;;;;;;;15.75;9.75;;;;;;;;5119198;27;45402;-61
2022/11/27 08:23:59;;;;;;;;;6.25;6.25;;;;;;;;5121085;27;45286;-61
2022/11/27 08:26:26;;;;;;;;;12.75;8.00;;;;;;;;5120009;27;46858;-62
2022/11/27 08:28:52;;;;;;;;;7.25;6.00;;;;;;;;5120526;27;45487;-62
2022/11/27 08:31:19;;;;;;;;;12.00;12.00;;;;;;;;5120605;27;45517;-61
2022/11/27 08:33:44;;;;;;;;;7.50;7.50;;;;;;;;5121103;27;45368;-60
2022/11/27 08:36:12;;;;;;;;;11.75;8.00;;;;;;;;5119844;27;45649;-61
2022/11/27 08:38:38;;;;;;;;;6.00;4.25;;;;;;;;5119650;27;45489;-62
2022/11/27 08:41:04;;;;;;;;;11.00;6.33;;;;;;;;5120283;27;45430;-62
2022/11/27 08:43:31;;;;;;;;;16.00;12.33;;;;;;;;5120477;27;45436;-63
2022/11/27 08:45:58;;;;;;;;;7.50;5.75;;;;;;;;5120779;27;45513;-62
2022/11/27 08:48:25;;;;;;;;;3.25;3.25;;;;;;;;5120144;27;45418;-64
2022/11/27 08:51:03;;;;;;;;;14.67;14.67;;;;;;;;5119788;27;45501;-65
2022/11/27 08:53:30;;;;;;;;;6.75;6.00;;;;;;;;5120754;27;45537;-63
2022/11/27 08:56:03;;;;;;;;;8.50;6.25;;;;;;;;5119814;27;46002;-60
2022/11/27 08:58:28;;;;;;;;;10.25;4.00;;;;;;;;5120571;27;45371;-60
2022/11/27 09:00:53;;;;;;;;;11.50;8.75;;;;;;;;5121006;27;45419;-61
2022/11/27 09:03:18;;;;;;;;;10.00;10.00;;;;;;;;5120965;27;45439;-61
2022/11/27 09:05:44;;;;;;;;;10.50;7.75;;;;;;;;5120735;27;46334;-62
2022/11/27 09:08:11;;;;;;;;;9.00;6.00;;;;;;;;5120734;27;45334;-61
2022/11/27 09:10:36;;;;;;;;;9.00;6.75;;;;;;;;5120377;27;45297;-61
2022/11/27 09:13:01;;;;;;;;;11.00;9.25;;;;;;;;5119689;27;45681;-60
2022/11/27 09:15:27;;;;;;;;;9.25;7.50;;;;;;;;5119755;27;46346;-62
2022/11/27 09:17:52;;;;;;;;;5.00;3.75;;;;;;;;5119787;27;45422;-59
2022/11/27 09:20:17;;;;;;;;;9.25;6.75;;;;;;;;5119529;27;45321;-60
2022/11/27 09:22:42;;;;;;;;;8.50;7.00;;;;;;;;5119839;27;45628;-61
2022/11/27 09:25:08;;;;;;;;;13.00;7.25;;;;;;;;5118289;27;46544;-60
2022/11/27 09:27:33;;;;;;;;;10.75;6.75;;;;;;;;5119742;27;45676;-60
2022/11/27 09:29:59;;;;;;;;;11.75;8.75;;;;;;;;5119633;27;45448;-60
2022/11/27 09:32:24;;;;;;;;;8.25;7.75;;;;;;;;5119037;27;45621;-61
2022/11/27 09:34:53;;;;;;;;;9.75;9.75;;;;;;;;5119441;27;45612;-61
2022/11/27 09:37:18;;;;;;;;;10.00;9.00;;;;;;;;5119490;27;45316;-61
2022/11/27 09:39:43;;;;;;;;;6.00;6.00;;;;;;;;5120029;27;45369;-61
2022/11/27 09:42:14;;;;;;;;;11.75;7.75;;;;;;;;5120430;27;45419;-61
2022/11/27 09:44:47;;;;;;;;;8.25;5.25;;;;;;;;5111480;27;46416;-61
2022/11/27 09:47:32;;;;;;;;;8.25;5.25;;;;;;;;5124863;27;45287;-61
2022/11/27 09:50:00;;;;;;;;;9.25;6.50;;;;;;;;5117080;27;45386;-61
2022/11/27 09:52:48;;;;;;;;;9.50;7.25;;;;;;;;5113758;27;45510;-61
2022/11/27 09:55:20;;;;;;;;;11.00;9.00;;;;;;;;5072906;28;47346;-61
2022/11/27 09:57:52;;;;;;;;;7.25;5.00;;;;;;;;5058965;28;45880;-61
2022/11/27 10:00:18;;;;;;;;;8.75;6.00;;;;;;;;5059047;28;45557;-60
2022/11/27 10:02:44;;;;;;;;;10.75;6.00;;;;;;;;5066448;27;45473;-60
2022/11/27 10:05:15;;;;;;;;;5.25;4.25;;;;;;;;5056829;27;45671;-61
2022/11/27 10:07:45;;;;;;;;;10.25;6.50;;;;;;;;5056195;28;45423;-60
2022/11/27 10:10:25;;;;;;;;;6.25;6.25;;;;;;;;5056340;28;45450;-60
2022/11/27 10:12:56;;;;;;;;;5.00;5.00;;;;;;;;5056359;28;45483;-60
2022/11/27 10:15:24;;;;;;;;;9.50;9.00;;;;;;;;5055624;28;46659;-60
2022/11/27 10:17:52;;;;;;;;;15.33;12.67;;;;;;;;5055741;28;46063;-60
2022/11/27 10:20:17;;;;;;;;;14.00;12.25;;;;;;;;5056090;28;45559;-60
2022/11/27 10:22:43;;;;;;;;;5.00;5.00;;;;;;;;5056235;28;45266;-60
2022/11/27 10:25:20;;;;;;;;;14.25;11.00;;;;;;;;5055809;28;46601;-60
2022/11/27 10:27:51;;;;;;;;;13.75;11.25;;;;;;;;5055952;28;45451;-60
2022/11/27 10:30:18;;;;;;;;;8.75;8.75;;;;;;;;5055749;28;45502;-61
2022/11/27 10:32:45;;;;;;;;;7.25;5.25;;;;;;;;5085780;27;45401;-60
2022/11/27 10:35:22;;;;;;;;;9.00;7.25;;;;;;;;5098622;27;46391;-59
2022/11/27 10:38:07;;;;;;;;;13.50;10.50;;;;;;;;5098423;27;45358;-59
2022/11/27 10:40:37;;;;;;;;;9.50;6.50;;;;;;;;5098482;27;45406;-59
2022/11/27 10:43:12;;;;;;;;;11.50;10.75;;;;;;;;5098801;27;45420;-60
2022/11/27 10:45:37;;;;;;;;;9.00;8.75;;;;;;;;5098268;27;45414;-60
2022/11/27 10:48:02;;;;;;;;;10.00;9.50;;;;;;;;5098524;27;45355;-60
2022/11/27 10:50:28;;;;;;;;;6.00;6.00;;;;;;;;5098475;27;45304;-60
2022/11/27 10:52:59;;;;;;;;;12.00;11.25;;;;;;;;5098806;27;45251;-60
2022/11/27 10:55:36;;;;;;;;;8.25;7.75;;;;;;;;5098508;27;46566;-60
2022/11/27 10:58:07;;;;;;;;;12.25;9.00;;;;;;;;5098225;27;45189;-60
2022/11/27 11:00:32;;;;;;;;;9.75;9.00;;;;;;;;5098358;27;45279;-60
2022/11/27 11:02:59;;;;;;;;;8.00;8.00;;;;;;;;5098448;27;45376;-60
2022/11/27 11:05:25;;;;;;;;;11.25;9.75;;;;;;;;5098208;27;45448;-60
2022/11/27 11:08:01;;;;;;;;;7.00;4.00;;;;;;;;5098209;27;45322;-59
2022/11/27 11:10:26;;;;;;;;;6.75;6.50;;;;;;;;5098058;27;45304;-60
2022/11/27 11:13:05;;;;;;;;;9.75;7.50;;;;;;;;5098308;27;45845;-60
2022/11/27 11:15:31;;;;;;;;;7.25;5.50;;;;;;;;5097901;27;46387;-60
2022/11/27 11:17:56;;;;;;;;;16.00;13.33;;;;;;;;5097875;27;45405;-60
2022/11/27 11:20:22;;;;;;;;;8.50;7.75;;;;;;;;5097875;27;45443;-60
2022/11/27 11:22:47;;;;;;;;;12.25;11.00;;;;;;;;5098325;27;45333;-60
2022/11/27 11:25:20;;;;;;;;;13.25;11.75;;;;;;;;5097776;27;46338;-60
2022/11/27 11:27:46;;;;;;;;;8.50;8.50;;;;;;;;5097769;27;45445;-60
2022/11/27 11:30:38;;;;;;;;;2.00;2.00;;;;;;;;5097949;27;45428;-60
2022/11/27 11:33:03;;;;;;;;;8.50;7.00;;;;;;;;5098033;27;45387;-60
2022/11/27 11:35:33;;;;;;;;;6.75;6.75;;;;;;;;5097337;27;46772;-60
2022/11/27 11:38:00;;;;;;;;;11.75;7.50;;;;;;;;5097894;27;45386;-60
2022/11/27 11:40:29;;;;;;;;;12.00;9.50;;;;;;;;5097881;27;45466;-60
2022/11/27 11:43:01;;;;;;;;;11.25;8.75;;;;;;;;5097854;27;45566;-61
2022/11/27 11:45:28;;;;;;;;;13.00;12.67;;;;;;;;5097402;27;47022;-60
2022/11/27 11:48:18;;;;;;;;;13.25;10.50;;;;;;;;5097635;27;45435;-60
2022/11/27 11:50:46;;;;;;;;;9.75;9.00;;;;;;;;5097746;27;45457;-60
2022/11/27 11:53:17;;;;;;;;;10.75;10.25;;;;;;;;5097688;27;45464;-60
2022/11/27 11:55:53;;;;;;;;;9.75;9.75;;;;;;;;5097880;27;46233;-60
2022/11/27 11:58:37;;;;;;;;;20.67;14.33;;;;;;;;5101352;27;45412;-60
2022/11/27 12:01:18;;;;;;;;;11.25;9.75;;;;;;;;5101116;27;45400;-60
2022/11/27 12:04:02;;;;;;;;;8.50;8.50;;;;;;;;5101242;27;45427;-60
2022/11/27 12:06:42;;;;;;;;;12.25;9.25;;;;;;;;5100870;27;46268;-60
2022/11/27 12:09:20;;;;;;;;;14.67;12.67;;;;;;;;5099547;27;45414;-60
2022/11/27 12:11:45;;;;;;;;;11.00;9.75;;;;;;;;5100985;27;45424;-60
2022/11/27 12:14:20;;;;;;;;;11.75;11.00;;;;;;;;5101216;27;45554;-60
2022/11/27 12:16:59;;;;;;;;;11.50;11.25;;;;;;;;5100725;27;47403;-60
2022/11/27 12:19:39;;;;;;;;;9.25;7.25;;;;;;;;5100585;27;45521;-60
2022/11/27 12:22:13;;;;;;;;;16.33;15.33;;;;;;;;5100804;27;45224;-61
2022/11/27 12:24:44;;;;;;;;;13.50;11.00;;;;;;;;5101162;27;45465;-60
2022/11/27 12:27:28;;;;;;;;;14.25;12.25;;;;;;;;5100657;27;46469;-60
2022/11/27 12:30:02;;;;;;;;;11.25;8.75;;;;;;;;5100644;27;45441;-60
2022/11/27 12:32:33;;;;;;;;;13.50;11.00;;;;;;;;5100560;27;45308;-60
2022/11/27 12:35:13;;;;;;;;;12.00;11.25;;;;;;;;5100959;27;45470;-60
2022/11/27 12:37:46;;;;;;;;;14.00;14.00;;;;;;;;5100459;27;45264;-60
2022/11/27 12:40:21;;;;;;;;;9.00;9.00;;;;;;;;5100576;27;45446;-60
2022/11/27 12:42:50;;;;;;;;;18.33;16.67;;;;;;;;5100430;27;45416;-60
2022/11/27 12:45:27;;;;;;;;;23.67;22.67;;;;;;;;5100486;27;45326;-60
2022/11/27 12:47:53;;;;;;;;;12.75;8.75;;;;;;;;5100413;27;46641;-60
2022/11/27 12:50:25;;;;;;;;;9.50;7.00;;;;;;;;5100162;27;45453;-60
2022/11/27 12:52:58;;;;;;;;;9.75;9.75;;;;;;;;5100416;27;45366;-62
2022/11/27 12:55:27;;;;;;;;;9.00;6.25;;;;;;;;5100698;27;45327;-62
2022/11/27 12:57:59;;;;;;;;;10.50;9.75;;;;;;;;5100127;27;45681;-62
2022/11/27 13:00:25;;;;;;;;;10.50;9.25;;;;;;;;5100006;27;45425;-60
2022/11/27 13:03:03;;;;;;;;;7.00;5.00;;;;;;;;5100347;27;45316;-60
2022/11/27 13:05:37;;;;;;;;;19.33;15.00;;;;;;;;5100499;27;45436;-60
2022/11/27 13:08:11;;;;;;;;;10.00;8.50;;;;;;;;5098561;27;45460;-60
2022/11/27 13:10:42;;;;;;;;;9.25;6.50;;;;;;;;5099957;27;45304;-60
2022/11/27 13:13:13;;;;;;;;;13.00;10.00;;;;;;;;5100190;27;45368;-60
2022/11/27 13:15:44;;;;;;;;;10.25;10.25;;;;;;;;5099975;27;45467;-60
2022/11/27 13:18:15;;;;;;;;;8.00;8.00;;;;;;;;5099608;27;45607;-62
2022/11/27 13:20:40;;;;;;;;;11.75;8.50;;;;;;;;5100039;27;45412;-60
2022/11/27 13:23:06;;;;;;;;;7.00;7.00;;;;;;;;5099984;27;45380;-60
2022/11/27 13:25:33;;;;;;;;;6.25;6.00;;;;;;;;5098749;27;45530;-60
2022/11/27 13:28:01;;;;;;;;;7.25;7.25;;;;;;;;5099904;27;46302;-60
2022/11/27 13:30:30;;;;;;;;;11.75;10.00;;;;;;;;5099706;27;45496;-60
2022/11/27 13:32:58;;;;;;;;;8.00;6.50;;;;;;;;5099808;27;45512;-60
2022/11/27 13:35:35;;;;;;;;;7.75;5.25;;;;;;;;5100127;27;45445;-60
2022/11/27 13:38:20;;;;;;;;;7.75;6.00;;;;;;;;5099480;27;46550;-60
2022/11/27 13:40:47;;;;;;;;;13.50;8.50;;;;;;;;5099237;27;45318;-60
2022/11/27 13:43:18;;;;;;;;;12.33;10.00;;;;;;;;5099572;27;45435;-59
2022/11/27 13:45:43;;;;;;;;;10.75;9.00;;;;;;;;5099802;27;45417;-60
2022/11/27 13:48:24;;;;;;;;;11.67;11.33;;;;;;;;5099298;27;46020;-60
2022/11/27 13:50:49;;;;;;;;;9.00;7.25;;;;;;;;5099332;27;45439;-60
2022/11/27 13:53:14;;;;;;;;;7.75;6.00;;;;;;;;5099665;27;45193;-60
2022/11/27 13:55:52;;;;;;;;;12.75;11.00;;;;;;;;5099562;27;45407;-60
2022/11/27 13:58:47;;;;;;;;;10.50;7.50;;;;;;;;5099112;27;45656;-60
2022/11/27 14:01:19;;;;;;;;;13.50;8.50;;;;;;;;5096791;27;45489;-60
2022/11/27 14:03:45;;;;;;;;;12.25;10.50;;;;;;;;5097008;27;45435;-60
2022/11/27 14:06:17;;;;;;;;;4.75;4.75;;;;;;;;5097371;27;45376;-60
2022/11/27 14:08:54;;;;;;;;;12.50;8.00;;;;;;;;5096844;27;46162;-60
2022/11/27 14:11:28;;;;;;;;;16.33;14.00;;;;;;;;5096777;27;45427;-60
2022/11/27 14:13:56;;;;;;;;;11.50;9.50;;;;;;;;5097155;27;45590;-60
2022/11/27 14:16:27;;;;;;;;;13.50;9.25;;;;;;;;5096992;27;45594;-60
2022/11/27 14:18:53;;;;;;;;;6.50;6.50;;;;;;;;5095914;27;45496;-60
2022/11/27 14:21:40;;;;;;;;;9.25;9.25;;;;;;;;5096663;27;45419;-60
2022/11/27 14:24:24;;;;;;;;;13.75;12.75;;;;;;;;5096692;27;45513;-60
2022/11/27 14:26:50;;;;;;;;;11.50;7.25;;;;;;;;5096992;27;45530;-60
2022/11/27 14:29:18;;;;;;;;;13.00;10.25;;;;;;;;5096482;27;46521;-60
2022/11/27 14:31:43;;;;;;;;;14.00;9.50;;;;;;;;5096233;27;45458;-60
2022/11/27 14:34:23;;;;;;;;;11.00;8.25;;;;;;;;5096882;27;45411;-60
2022/11/27 14:36:51;;;;;;;;;10.25;7.50;;;;;;;;5096789;27;45402;-60
2022/11/27 14:39:23;;;;;;;;;7.75;4.75;;;;;;;;5098544;27;46203;-60
2022/11/27 14:42:02;;;;;;;;;14.00;9.25;;;;;;;;5098619;27;45306;-60
2022/11/27 14:44:28;;;;;;;;;14.75;7.00;;;;;;;;5098838;27;45496;-60